(541)-479-2230 [email protected]

City of Grants Pass

Grants Pass AirportĀ 

Current Weather Conditions Medford Airport:
MEDFORD, OR
Metar
KMFR 250053Z 00000KT 10SM CLR 27/M04 A2998 RMK AO2 SLP147 T02721039

00:53 UTC

Wind: 0° 0kt

Visibility: 10 SM

Sky:

Temp: 27 deg C / 80.6 deg F

Dewpoint: -4 deg C / 24.8 deg F

Pressure: 29.98 inHg

TAF
KMFR 242331Z 2500/2524 01008KT P6SM SKC FM250300 VRB03KT P6SM SKC